Gill, South Dakota
Current Conditions -  °F | °C
As of 3:35 AM on Sunday 26 Oct 2014 (Local Time) from KSPF Reporting Station
Clear Clear  
Wind Chill: 72°   Ceiling: Unl
Heat Index: 72°   Visibility: 10mi
Dew Point: 32°   Wind: 30mph
Humidity: 23%   Direction: 230°SW
Pressure: 29.64"   Gusts: 49mph
Location:  44.9094°N, 103.193°W
Report Text: KSPF 260935Z AUTO 23026G43KT 10SM CLR 22/00 A2964 RMK AO2
Loading
Personal Weather Stations






























Interactive Weather Map
Tropical Storm Tracking
New forecast layout! Learn more

10-Day Weather Forecast

Advertisements
Track Severe Weather on mobile